Thunder Bay, Canada
Current Conditions -  °F | °C
As of 4:00 PM on Friday 24 Oct 2014 (Local Time) from CYQT Reporting Station
Broken Clouds Broken Clouds  
Wind Chill: 59°   Ceiling: 24000
Heat Index: 59°   Visibility: 20mi
Dew Point: 50°   Wind: 8mph
Humidity: 72%   Direction: 40°NE
Pressure: 29.71"   Gusts: NA
Location:  48.38°N, 89.25°W
Report Text: CYQT 242000Z 04007KT 20SM SCT170 BKN240 15/10 A2971 RMK AC4CI3 SLP064 DENSITY ALT 1000FT
Loading
Personal Weather Stations






























Interactive Weather Map
Tropical Storm Tracking
New forecast layout! Learn more

10-Day Weather Forecast

Advertisements
Track Severe Weather on mobile